sensor_id;sensor_type;location;lat;lon;timestamp;P1;durP1;ratioP1;P2;durP2;ratioP2
32872;SDS011;19224;52.462;16.898;2023-04-25T00:01:55;1.10;;;1.00;;
32872;SDS011;19224;52.462;16.898;2023-04-25T00:04:27;1.45;;;1.10;;
32872;SDS011;19224;52.462;16.898;2023-04-25T00:06:57;1.52;;;1.00;;
32872;SDS011;19224;52.462;16.898;2023-04-25T00:09:29;1.67;;;0.90;;
32872;SDS011;19224;52.462;16.898;2023-04-25T00:12:00;1.65;;;1.00;;
32872;SDS011;19224;52.462;16.898;2023-04-25T00:14:31;1.00;;;0.98;;
32872;SDS011;19224;52.462;16.898;2023-04-25T00:17:02;0.70;;;0.70;;
32872;SDS011;19224;52.462;16.898;2023-04-25T00:19:33;0.90;;;0.70;;
32872;SDS011;19224;52.462;16.898;2023-04-25T00:22:05;1.67;;;1.32;;
32872;SDS011;19224;52.462;16.898;2023-04-25T00:24:35;1.40;;;0.88;;
32872;SDS011;19224;52.462;16.898;2023-04-25T00:27:05;1.10;;;0.90;;
32872;SDS011;19224;52.462;16.898;2023-04-25T00:29:35;1.37;;;0.90;;
32872;SDS011;19224;52.462;16.898;2023-04-25T00:32:05;5.53;;;1.10;;
32872;SDS011;19224;52.462;16.898;2023-04-25T00:34:35;0.88;;;0.88;;
32872;SDS011;19224;52.462;16.898;2023-04-25T00:37:05;0.70;;;0.70;;
32872;SDS011;19224;52.462;16.898;2023-04-25T00:39:35;1.57;;;1.05;;
32872;SDS011;19224;52.462;16.898;2023-04-25T00:42:06;1.60;;;1.00;;
32872;SDS011;19224;52.462;16.898;2023-04-25T00:44:37;1.30;;;0.90;;
32872;SDS011;19224;52.462;16.898;2023-04-25T00:47:08;1.20;;;1.00;;
32872;SDS011;19224;52.462;16.898;2023-04-25T00:49:40;2.50;;;1.00;;
32872;SDS011;19224;52.462;16.898;2023-04-25T00:52:10;2.95;;;1.00;;
32872;SDS011;19224;52.462;16.898;2023-04-25T00:54:41;1.85;;;1.27;;
32872;SDS011;19224;52.462;16.898;2023-04-25T00:57:12;1.00;;;0.90;;
32872;SDS011;19224;52.462;16.898;2023-04-25T00:59:44;3.40;;;1.37;;
32872;SDS011;19224;52.462;16.898;2023-04-25T01:02:15;1.25;;;1.07;;
32872;SDS011;19224;52.462;16.898;2023-04-25T01:04:46;4.40;;;1.20;;
32872;SDS011;19224;52.462;16.898;2023-04-25T01:07:17;1.20;;;1.10;;
32872;SDS011;19224;52.462;16.898;2023-04-25T01:09:48;1.10;;;1.00;;
32872;SDS011;19224;52.462;16.898;2023-04-25T01:12:20;1.87;;;1.20;;
32872;SDS011;19224;52.462;16.898;2023-04-25T01:14:51;1.10;;;1.02;;
32872;SDS011;19224;52.462;16.898;2023-04-25T01:17:21;1.65;;;1.12;;
32872;SDS011;19224;52.462;16.898;2023-04-25T01:19:51;2.05;;;1.22;;
32872;SDS011;19224;52.462;16.898;2023-04-25T01:22:22;2.15;;;1.65;;
32872;SDS011;19224;52.462;16.898;2023-04-25T01:24:53;1.75;;;1.00;;
32872;SDS011;19224;52.462;16.898;2023-04-25T01:27:24;2.15;;;1.15;;
32872;SDS011;19224;52.462;16.898;2023-04-25T01:29:56;1.35;;;1.05;;
32872;SDS011;19224;52.462;16.898;2023-04-25T01:32:27;1.92;;;1.12;;
32872;SDS011;19224;52.462;16.898;2023-04-25T01:35:00;3.17;;;1.20;;
32872;SDS011;19224;52.462;16.898;2023-04-25T01:37:30;1.77;;;1.20;;
32872;SDS011;19224;52.462;16.898;2023-04-25T01:40:00;1.98;;;1.12;;
32872;SDS011;19224;52.462;16.898;2023-04-25T01:42:33;1.57;;;1.10;;
32872;SDS011;19224;52.462;16.898;2023-04-25T01:45:06;1.40;;;1.27;;
32872;SDS011;19224;52.462;16.898;2023-04-25T01:47:38;1.67;;;1.30;;
32872;SDS011;19224;52.462;16.898;2023-04-25T01:50:10;1.85;;;1.40;;
32872;SDS011;19224;52.462;16.898;2023-04-25T01:52:41;2.83;;;1.67;;
32872;SDS011;19224;52.462;16.898;2023-04-25T01:55:12;2.58;;;1.60;;
32872;SDS011;19224;52.462;16.898;2023-04-25T01:57:42;3.70;;;1.40;;
32872;SDS011;19224;52.462;16.898;2023-04-25T02:00:13;3.02;;;1.65;;
32872;SDS011;19224;52.462;16.898;2023-04-25T02:02:43;2.22;;;1.40;;
32872;SDS011;19224;52.462;16.898;2023-04-25T02:05:14;2.12;;;1.50;;
32872;SDS011;19224;52.462;16.898;2023-04-25T02:07:44;2.22;;;1.60;;
32872;SDS011;19224;52.462;16.898;2023-04-25T02:10:16;2.50;;;1.40;;
32872;SDS011;19224;52.462;16.898;2023-04-25T02:12:46;2.40;;;1.60;;
32872;SDS011;19224;52.462;16.898;2023-04-25T02:15:16;2.37;;;1.30;;
32872;SDS011;19224;52.462;16.898;2023-04-25T02:17:47;2.70;;;1.40;;
32872;SDS011;19224;52.462;16.898;2023-04-25T02:20:17;1.77;;;1.47;;
32872;SDS011;19224;52.462;16.898;2023-04-25T02:22:50;3.12;;;1.85;;
32872;SDS011;19224;52.462;16.898;2023-04-25T02:25:20;2.17;;;1.52;;
32872;SDS011;19224;52.462;16.898;2023-04-25T02:27:51;2.67;;;1.50;;
32872;SDS011;19224;52.462;16.898;2023-04-25T02:30:22;1.72;;;1.45;;
32872;SDS011;19224;52.462;16.898;2023-04-25T02:32:52;2.22;;;1.50;;
32872;SDS011;19224;52.462;16.898;2023-04-25T02:35:22;2.10;;;1.65;;
32872;SDS011;19224;52.462;16.898;2023-04-25T02:37:53;2.17;;;1.50;;
32872;SDS011;19224;52.462;16.898;2023-04-25T02:40:23;4.22;;;1.40;;
32872;SDS011;19224;52.462;16.898;2023-04-25T02:42:54;5.42;;;1.90;;
32872;SDS011;19224;52.462;16.898;2023-04-25T02:45:24;2.90;;;1.50;;
32872;SDS011;19224;52.462;16.898;2023-04-25T02:47:54;2.67;;;1.50;;
32872;SDS011;19224;52.462;16.898;2023-04-25T02:50:24;2.58;;;1.77;;
32872;SDS011;19224;52.462;16.898;2023-04-25T02:52:55;2.90;;;1.90;;
32872;SDS011;19224;52.462;16.898;2023-04-25T02:55:25;3.37;;;2.10;;
32872;SDS011;19224;52.462;16.898;2023-04-25T02:57:55;4.17;;;2.40;;
32872;SDS011;19224;52.462;16.898;2023-04-25T03:00:26;4.58;;;2.30;;
32872;SDS011;19224;52.462;16.898;2023-04-25T03:02:57;5.33;;;2.20;;
32872;SDS011;19224;52.462;16.898;2023-04-25T03:05:27;3.92;;;1.90;;
32872;SDS011;19224;52.462;16.898;2023-04-25T03:07:58;4.17;;;2.30;;
32872;SDS011;19224;52.462;16.898;2023-04-25T03:10:28;5.12;;;2.25;;
32872;SDS011;19224;52.462;16.898;2023-04-25T03:12:58;3.05;;;1.82;;
32872;SDS011;19224;52.462;16.898;2023-04-25T03:15:28;3.98;;;2.60;;
32872;SDS011;19224;52.462;16.898;2023-04-25T03:17:59;3.47;;;2.08;;
32872;SDS011;19224;52.462;16.898;2023-04-25T03:20:29;4.33;;;2.27;;
32872;SDS011;19224;52.462;16.898;2023-04-25T03:23:00;4.75;;;2.35;;
32872;SDS011;19224;52.462;16.898;2023-04-25T03:25:30;6.30;;;2.65;;
32872;SDS011;19224;52.462;16.898;2023-04-25T03:28:00;4.42;;;2.30;;
32872;SDS011;19224;52.462;16.898;2023-04-25T03:30:31;4.60;;;2.20;;
32872;SDS011;19224;52.462;16.898;2023-04-25T03:33:01;5.17;;;2.60;;
32872;SDS011;19224;52.462;16.898;2023-04-25T03:35:31;4.87;;;2.60;;
32872;SDS011;19224;52.462;16.898;2023-04-25T03:38:02;6.45;;;2.60;;
32872;SDS011;19224;52.462;16.898;2023-04-25T03:40:32;5.12;;;2.47;;
32872;SDS011;19224;52.462;16.898;2023-04-25T03:43:03;3.62;;;2.50;;
32872;SDS011;19224;52.462;16.898;2023-04-25T03:45:33;8.68;;;2.72;;
32872;SDS011;19224;52.462;16.898;2023-04-25T03:48:03;6.35;;;3.47;;
32872;SDS011;19224;52.462;16.898;2023-04-25T03:50:33;4.10;;;2.60;;
32872;SDS011;19224;52.462;16.898;2023-04-25T03:53:04;3.92;;;2.80;;
32872;SDS011;19224;52.462;16.898;2023-04-25T03:55:34;4.87;;;2.77;;
32872;SDS011;19224;52.462;16.898;2023-04-25T03:58:04;4.50;;;3.00;;
32872;SDS011;19224;52.462;16.898;2023-04-25T04:00:35;4.72;;;2.65;;
32872;SDS011;19224;52.462;16.898;2023-04-25T04:03:06;6.92;;;2.85;;
32872;SDS011;19224;52.462;16.898;2023-04-25T04:05:36;4.45;;;2.85;;
32872;SDS011;19224;52.462;16.898;2023-04-25T04:08:08;5.03;;;3.12;;
32872;SDS011;19224;52.462;16.898;2023-04-25T04:10:38;5.10;;;2.98;;
32872;SDS011;19224;52.462;16.898;2023-04-25T04:13:08;5.12;;;2.85;;
32872;SDS011;19224;52.462;16.898;2023-04-25T04:15:39;5.87;;;3.00;;
32872;SDS011;19224;52.462;16.898;2023-04-25T04:18:09;4.03;;;3.05;;
32872;SDS011;19224;52.462;16.898;2023-04-25T04:20:40;6.08;;;3.42;;
32872;SDS011;19224;52.462;16.898;2023-04-25T04:23:10;5.15;;;2.90;;
32872;SDS011;19224;52.462;16.898;2023-04-25T04:25:40;5.50;;;3.10;;
32872;SDS011;19224;52.462;16.898;2023-04-25T04:28:11;5.70;;;2.90;;
32872;SDS011;19224;52.462;16.898;2023-04-25T04:30:42;5.37;;;3.08;;
32872;SDS011;19224;52.462;16.898;2023-04-25T04:33:14;5.22;;;2.90;;
32872;SDS011;19224;52.462;16.898;2023-04-25T04:35:45;6.10;;;3.17;;
32872;SDS011;19224;52.462;16.898;2023-04-25T04:38:16;8.50;;;3.17;;
32872;SDS011;19224;52.462;16.898;2023-04-25T04:40:47;5.15;;;3.40;;
32872;SDS011;19224;52.462;16.898;2023-04-25T04:43:18;5.50;;;3.35;;
32872;SDS011;19224;52.462;16.898;2023-04-25T04:45:50;4.37;;;2.90;;
32872;SDS011;19224;52.462;16.898;2023-04-25T04:48:21;4.40;;;3.05;;
32872;SDS011;19224;52.462;16.898;2023-04-25T04:50:52;9.53;;;3.50;;
32872;SDS011;19224;52.462;16.898;2023-04-25T04:53:22;7.08;;;3.33;;
32872;SDS011;19224;52.462;16.898;2023-04-25T04:55:53;4.37;;;3.00;;
32872;SDS011;19224;52.462;16.898;2023-04-25T04:58:23;7.53;;;3.40;;
32872;SDS011;19224;52.462;16.898;2023-04-25T05:00:55;9.40;;;4.47;;
32872;SDS011;19224;52.462;16.898;2023-04-25T05:03:25;5.22;;;3.33;;
32872;SDS011;19224;52.462;16.898;2023-04-25T05:05:56;5.62;;;3.45;;
32872;SDS011;19224;52.462;16.898;2023-04-25T05:08:26;6.25;;;3.50;;
32872;SDS011;19224;52.462;16.898;2023-04-25T05:10:56;5.03;;;3.37;;
32872;SDS011;19224;52.462;16.898;2023-04-25T05:13:26;5.75;;;3.40;;
32872;SDS011;19224;52.462;16.898;2023-04-25T05:15:57;8.20;;;3.75;;
32872;SDS011;19224;52.462;16.898;2023-04-25T05:18:27;6.37;;;3.42;;
32872;SDS011;19224;52.462;16.898;2023-04-25T05:21:00;5.65;;;3.47;;
32872;SDS011;19224;52.462;16.898;2023-04-25T05:23:30;6.83;;;3.30;;
32872;SDS011;19224;52.462;16.898;2023-04-25T05:26:02;4.92;;;3.45;;
32872;SDS011;19224;52.462;16.898;2023-04-25T05:28:33;6.80;;;3.45;;
32872;SDS011;19224;52.462;16.898;2023-04-25T05:31:03;6.42;;;3.85;;
32872;SDS011;19224;52.462;16.898;2023-04-25T05:33:34;5.30;;;3.80;;
32872;SDS011;19224;52.462;16.898;2023-04-25T05:36:05;5.35;;;3.55;;
32872;SDS011;19224;52.462;16.898;2023-04-25T05:38:36;4.45;;;3.20;;
32872;SDS011;19224;52.462;16.898;2023-04-25T05:41:06;5.37;;;3.30;;
32872;SDS011;19224;52.462;16.898;2023-04-25T05:43:37;8.65;;;2.98;;
32872;SDS011;19224;52.462;16.898;2023-04-25T05:46:08;9.60;;;2.92;;
32872;SDS011;19224;52.462;16.898;2023-04-25T05:48:39;8.43;;;3.02;;
32872;SDS011;19224;52.462;16.898;2023-04-25T05:51:10;8.15;;;3.10;;
32872;SDS011;19224;52.462;16.898;2023-04-25T05:53:40;7.20;;;3.33;;
32872;SDS011;19224;52.462;16.898;2023-04-25T05:56:10;13.00;;;4.25;;
32872;SDS011;19224;52.462;16.898;2023-04-25T05:58:41;9.90;;;3.20;;
32872;SDS011;19224;52.462;16.898;2023-04-25T06:01:11;8.33;;;3.17;;
32872;SDS011;19224;52.462;16.898;2023-04-25T06:03:42;6.25;;;3.00;;
32872;SDS011;19224;52.462;16.898;2023-04-25T06:06:12;6.28;;;3.10;;
32872;SDS011;19224;52.462;16.898;2023-04-25T06:08:42;4.50;;;2.58;;
32872;SDS011;19224;52.462;16.898;2023-04-25T06:11:13;3.37;;;2.58;;
32872;SDS011;19224;52.462;16.898;2023-04-25T06:13:43;6.70;;;2.60;;
32872;SDS011;19224;52.462;16.898;2023-04-25T06:16:14;6.20;;;3.30;;
32872;SDS011;19224;52.462;16.898;2023-04-25T06:18:44;6.35;;;2.85;;
32872;SDS011;19224;52.462;16.898;2023-04-25T06:21:15;8.23;;;2.90;;
32872;SDS011;19224;52.462;16.898;2023-04-25T06:23:45;9.65;;;3.10;;
32872;SDS011;19224;52.462;16.898;2023-04-25T06:26:15;6.17;;;3.20;;
32872;SDS011;19224;52.462;16.898;2023-04-25T06:28:45;6.33;;;2.92;;
32872;SDS011;19224;52.462;16.898;2023-04-25T06:31:16;4.45;;;2.90;;
32872;SDS011;19224;52.462;16.898;2023-04-25T06:33:46;5.50;;;2.80;;
32872;SDS011;19224;52.462;16.898;2023-04-25T06:36:16;6.33;;;3.22;;
32872;SDS011;19224;52.462;16.898;2023-04-25T06:38:48;6.92;;;2.50;;
32872;SDS011;19224;52.462;16.898;2023-04-25T06:41:18;7.97;;;3.20;;
32872;SDS011;19224;52.462;16.898;2023-04-25T06:43:49;6.72;;;3.37;;
32872;SDS011;19224;52.462;16.898;2023-04-25T06:46:19;9.48;;;2.92;;
32872;SDS011;19224;52.462;16.898;2023-04-25T06:48:50;4.70;;;3.02;;
32872;SDS011;19224;52.462;16.898;2023-04-25T06:51:20;10.82;;;3.90;;
32872;SDS011;19224;52.462;16.898;2023-04-25T06:53:52;9.38;;;3.40;;
32872;SDS011;19224;52.462;16.898;2023-04-25T06:56:22;5.42;;;2.70;;
32872;SDS011;19224;52.462;16.898;2023-04-25T06:58:52;7.85;;;3.60;;
32872;SDS011;19224;52.462;16.898;2023-04-25T07:01:23;8.78;;;3.95;;
32872;SDS011;19224;52.462;16.898;2023-04-25T07:03:53;12.73;;;3.70;;
32872;SDS011;19224;52.462;16.898;2023-04-25T07:06:23;12.00;;;3.77;;
32872;SDS011;19224;52.462;16.898;2023-04-25T07:08:55;7.33;;;3.33;;
32872;SDS011;19224;52.462;16.898;2023-04-25T07:11:25;6.12;;;3.20;;
32872;SDS011;19224;52.462;16.898;2023-04-25T07:13:55;5.35;;;3.08;;
32872;SDS011;19224;52.462;16.898;2023-04-25T07:16:25;8.55;;;3.20;;
32872;SDS011;19224;52.462;16.898;2023-04-25T07:18:56;7.78;;;3.10;;
32872;SDS011;19224;52.462;16.898;2023-04-25T07:21:27;6.20;;;3.10;;
32872;SDS011;19224;52.462;16.898;2023-04-25T07:23:58;7.33;;;2.83;;
32872;SDS011;19224;52.462;16.898;2023-04-25T07:26:29;6.42;;;3.08;;
32872;SDS011;19224;52.462;16.898;2023-04-25T07:28:59;7.60;;;3.60;;
32872;SDS011;19224;52.462;16.898;2023-04-25T07:31:29;12.25;;;3.70;;
32872;SDS011;19224;52.462;16.898;2023-04-25T07:33:59;8.45;;;3.33;;
32872;SDS011;19224;52.462;16.898;2023-04-25T07:36:29;7.95;;;3.33;;
32872;SDS011;19224;52.462;16.898;2023-04-25T07:39:00;7.15;;;3.20;;
32872;SDS011;19224;52.462;16.898;2023-04-25T07:41:30;6.08;;;3.02;;
32872;SDS011;19224;52.462;16.898;2023-04-25T07:44:00;7.55;;;3.60;;
32872;SDS011;19224;52.462;16.898;2023-04-25T07:46:30;11.73;;;3.60;;
32872;SDS011;19224;52.462;16.898;2023-04-25T07:49:02;11.30;;;3.65;;
32872;SDS011;19224;52.462;16.898;2023-04-25T07:51:32;8.38;;;3.37;;
32872;SDS011;19224;52.462;16.898;2023-04-25T07:54:03;12.60;;;3.83;;
32872;SDS011;19224;52.462;16.898;2023-04-25T07:56:33;12.20;;;3.30;;
32872;SDS011;19224;52.462;16.898;2023-04-25T07:59:03;16.82;;;4.55;;
32872;SDS011;19224;52.462;16.898;2023-04-25T08:01:34;5.30;;;3.30;;
32872;SDS011;19224;52.462;16.898;2023-04-25T08:04:05;6.12;;;3.27;;
32872;SDS011;19224;52.462;16.898;2023-04-25T08:06:35;14.30;;;3.27;;
32872;SDS011;19224;52.462;16.898;2023-04-25T08:09:06;8.23;;;3.00;;
32872;SDS011;19224;52.462;16.898;2023-04-25T08:11:37;7.67;;;3.55;;
32872;SDS011;19224;52.462;16.898;2023-04-25T08:14:08;10.98;;;3.50;;
32872;SDS011;19224;52.462;16.898;2023-04-25T08:16:38;15.78;;;3.70;;
32872;SDS011;19224;52.462;16.898;2023-04-25T08:19:09;7.62;;;3.58;;
32872;SDS011;19224;52.462;16.898;2023-04-25T08:21:40;5.17;;;3.20;;
32872;SDS011;19224;52.462;16.898;2023-04-25T08:24:10;7.17;;;3.25;;
32872;SDS011;19224;52.462;16.898;2023-04-25T08:26:40;9.25;;;2.98;;
32872;SDS011;19224;52.462;16.898;2023-04-25T08:29:10;7.70;;;3.17;;
32872;SDS011;19224;52.462;16.898;2023-04-25T08:31:41;9.33;;;3.12;;
32872;SDS011;19224;52.462;16.898;2023-04-25T08:34:12;5.72;;;2.90;;
32872;SDS011;19224;52.462;16.898;2023-04-25T08:36:43;11.43;;;3.67;;
32872;SDS011;19224;52.462;16.898;2023-04-25T08:39:13;7.17;;;3.52;;
32872;SDS011;19224;52.462;16.898;2023-04-25T08:41:43;7.55;;;3.55;;
32872;SDS011;19224;52.462;16.898;2023-04-25T08:44:14;5.95;;;3.30;;
32872;SDS011;19224;52.462;16.898;2023-04-25T08:46:46;6.00;;;3.10;;
32872;SDS011;19224;52.462;16.898;2023-04-25T08:49:17;6.58;;;2.98;;
32872;SDS011;19224;52.462;16.898;2023-04-25T08:51:48;6.95;;;3.08;;
32872;SDS011;19224;52.462;16.898;2023-04-25T08:54:20;5.12;;;3.05;;
32872;SDS011;19224;52.462;16.898;2023-04-25T08:56:54;9.03;;;3.40;;
32872;SDS011;19224;52.462;16.898;2023-04-25T08:59:25;11.35;;;3.42;;
32872;SDS011;19224;52.462;16.898;2023-04-25T09:01:58;5.20;;;2.85;;
32872;SDS011;19224;52.462;16.898;2023-04-25T09:04:36;7.20;;;3.58;;
32872;SDS011;19224;52.462;16.898;2023-04-25T09:07:02;10.05;;;3.77;;
32872;SDS011;19224;52.462;16.898;2023-04-25T09:09:32;14.13;;;3.72;;
32872;SDS011;19224;52.462;16.898;2023-04-25T09:12:04;10.65;;;3.17;;
32872;SDS011;19224;52.462;16.898;2023-04-25T09:14:35;10.20;;;2.95;;
32872;SDS011;19224;52.462;16.898;2023-04-25T09:17:05;7.53;;;3.10;;
32872;SDS011;19224;52.462;16.898;2023-04-25T09:19:36;8.60;;;3.10;;
32872;SDS011;19224;52.462;16.898;2023-04-25T09:22:08;10.63;;;3.40;;
32872;SDS011;19224;52.462;16.898;2023-04-25T09:24:39;6.95;;;2.85;;
32872;SDS011;19224;52.462;16.898;2023-04-25T09:27:17;4.87;;;3.00;;
32872;SDS011;19224;52.462;16.898;2023-04-25T09:29:56;4.70;;;2.95;;
32872;SDS011;19224;52.462;16.898;2023-04-25T09:32:29;7.10;;;3.02;;
32872;SDS011;19224;52.462;16.898;2023-04-25T09:34:59;6.10;;;2.90;;
32872;SDS011;19224;52.462;16.898;2023-04-25T09:37:30;5.47;;;2.50;;
32872;SDS011;19224;52.462;16.898;2023-04-25T09:40:03;5.35;;;2.95;;
32872;SDS011;19224;52.462;16.898;2023-04-25T09:42:35;6.90;;;2.80;;
32872;SDS011;19224;52.462;16.898;2023-04-25T09:45:07;8.13;;;3.60;;
32872;SDS011;19224;52.462;16.898;2023-04-25T09:47:39;6.28;;;2.92;;
32872;SDS011;19224;52.462;16.898;2023-04-25T09:50:14;5.50;;;2.72;;
32872;SDS011;19224;52.462;16.898;2023-04-25T09:53:03;5.17;;;2.65;;
32872;SDS011;19224;52.462;16.898;2023-04-25T09:55:34;5.25;;;2.98;;
32872;SDS011;19224;52.462;16.898;2023-04-25T09:58:05;5.45;;;2.58;;
32872;SDS011;19224;52.462;16.898;2023-04-25T10:00:37;7.95;;;2.90;;
32872;SDS011;19224;52.462;16.898;2023-04-25T10:03:09;9.35;;;2.80;;
32872;SDS011;19224;52.462;16.898;2023-04-25T10:05:41;3.90;;;2.77;;
32872;SDS011;19224;52.462;16.898;2023-04-25T10:08:13;13.68;;;3.30;;
32872;SDS011;19224;52.462;16.898;2023-04-25T10:10:45;6.25;;;2.80;;
32872;SDS011;19224;52.462;16.898;2023-04-25T10:13:18;5.12;;;2.30;;
32872;SDS011;19224;52.462;16.898;2023-04-25T10:15:49;4.95;;;2.30;;
32872;SDS011;19224;52.462;16.898;2023-04-25T10:18:21;6.50;;;2.65;;
32872;SDS011;19224;52.462;16.898;2023-04-25T10:20:53;7.60;;;2.40;;
32872;SDS011;19224;52.462;16.898;2023-04-25T10:23:29;5.60;;;2.40;;
32872;SDS011;19224;52.462;16.898;2023-04-25T10:26:02;8.18;;;2.92;;
32872;SDS011;19224;52.462;16.898;2023-04-25T10:28:54;5.55;;;2.50;;
32872;SDS011;19224;52.462;16.898;2023-04-25T10:31:24;6.40;;;2.77;;
32872;SDS011;19224;52.462;16.898;2023-04-25T10:33:54;8.58;;;2.52;;
32872;SDS011;19224;52.462;16.898;2023-04-25T10:36:25;7.62;;;2.60;;
32872;SDS011;19224;52.462;16.898;2023-04-25T10:39:01;9.38;;;2.98;;
32872;SDS011;19224;52.462;16.898;2023-04-25T10:41:52;4.17;;;2.12;;
32872;SDS011;19224;52.462;16.898;2023-04-25T10:44:28;7.30;;;2.80;;
32872;SDS011;19224;52.462;16.898;2023-04-25T10:47:00;6.28;;;2.40;;
32872;SDS011;19224;52.462;16.898;2023-04-25T10:49:37;5.05;;;2.60;;
32872;SDS011;19224;52.462;16.898;2023-04-25T10:52:12;16.10;;;2.70;;
32872;SDS011;19224;52.462;16.898;2023-04-25T10:54:51;9.65;;;2.85;;
32872;SDS011;19224;52.462;16.898;2023-04-25T10:57:31;12.03;;;2.33;;
32872;SDS011;19224;52.462;16.898;2023-04-25T11:00:15;6.00;;;2.52;;
32872;SDS011;19224;52.462;16.898;2023-04-25T11:02:53;11.38;;;2.37;;
32872;SDS011;19224;52.462;16.898;2023-04-25T11:05:32;3.47;;;2.22;;
32872;SDS011;19224;52.462;16.898;2023-04-25T11:08:07;5.87;;;2.12;;
32872;SDS011;19224;52.462;16.898;2023-04-25T11:10:40;4.75;;;1.98;;
32872;SDS011;19224;52.462;16.898;2023-04-25T11:13:10;3.80;;;2.08;;
32872;SDS011;19224;52.462;16.898;2023-04-25T11:15:40;5.33;;;2.40;;
32872;SDS011;19224;52.462;16.898;2023-04-25T11:18:15;7.95;;;2.60;;
32872;SDS011;19224;52.462;16.898;2023-04-25T11:20:46;11.38;;;2.70;;
32872;SDS011;19224;52.462;16.898;2023-04-25T11:23:18;8.83;;;2.98;;
32872;SDS011;19224;52.462;16.898;2023-04-25T11:25:48;10.78;;;2.65;;
32872;SDS011;19224;52.462;16.898;2023-04-25T11:28:20;7.25;;;2.30;;
32872;SDS011;19224;52.462;16.898;2023-04-25T11:30:52;5.72;;;2.20;;
32872;SDS011;19224;52.462;16.898;2023-04-25T11:33:23;6.17;;;1.77;;
32872;SDS011;19224;52.462;16.898;2023-04-25T11:35:55;6.58;;;2.00;;
32872;SDS011;19224;52.462;16.898;2023-04-25T11:38:25;14.07;;;2.30;;
32872;SDS011;19224;52.462;16.898;2023-04-25T11:40:56;5.08;;;2.00;;
32872;SDS011;19224;52.462;16.898;2023-04-25T11:43:27;9.85;;;2.45;;
32872;SDS011;19224;52.462;16.898;2023-04-25T11:45:58;6.72;;;2.20;;
32872;SDS011;19224;52.462;16.898;2023-04-25T11:48:28;6.62;;;2.45;;
32872;SDS011;19224;52.462;16.898;2023-04-25T11:51:08;10.23;;;2.40;;
32872;SDS011;19224;52.462;16.898;2023-04-25T11:53:40;6.50;;;2.25;;
32872;SDS011;19224;52.462;16.898;2023-04-25T11:56:11;6.70;;;2.35;;
32872;SDS011;19224;52.462;16.898;2023-04-25T11:59:01;5.67;;;2.15;;
32872;SDS011;19224;52.462;16.898;2023-04-25T12:01:40;7.97;;;2.30;;
32872;SDS011;19224;52.462;16.898;2023-04-25T12:04:16;6.67;;;2.60;;
32872;SDS011;19224;52.462;16.898;2023-04-25T12:06:53;5.45;;;2.27;;
32872;SDS011;19224;52.462;16.898;2023-04-25T12:09:33;6.10;;;2.75;;
32872;SDS011;19224;52.462;16.898;2023-04-25T12:12:02;7.28;;;2.70;;
32872;SDS011;19224;52.462;16.898;2023-04-25T12:14:33;8.88;;;2.87;;
32872;SDS011;19224;52.462;16.898;2023-04-25T12:17:05;8.25;;;2.20;;
32872;SDS011;19224;52.462;16.898;2023-04-25T12:19:36;4.78;;;2.27;;
32872;SDS011;19224;52.462;16.898;2023-04-25T12:22:19;4.17;;;1.87;;
32872;SDS011;19224;52.462;16.898;2023-04-25T12:24:52;6.37;;;1.90;;
32872;SDS011;19224;52.462;16.898;2023-04-25T12:27:25;4.83;;;2.05;;
32872;SDS011;19224;52.462;16.898;2023-04-25T12:29:55;7.95;;;1.95;;
32872;SDS011;19224;52.462;16.898;2023-04-25T12:32:26;8.88;;;2.08;;
32872;SDS011;19224;52.462;16.898;2023-04-25T12:34:59;6.22;;;2.22;;
32872;SDS011;19224;52.462;16.898;2023-04-25T12:37:29;6.58;;;2.10;;
32872;SDS011;19224;52.462;16.898;2023-04-25T12:40:00;7.62;;;2.40;;
32872;SDS011;19224;52.462;16.898;2023-04-25T12:42:31;4.50;;;2.15;;
32872;SDS011;19224;52.462;16.898;2023-04-25T12:45:02;7.97;;;2.42;;
32872;SDS011;19224;52.462;16.898;2023-04-25T12:47:33;5.15;;;2.40;;
32872;SDS011;19224;52.462;16.898;2023-04-25T12:50:04;10.75;;;2.05;;
32872;SDS011;19224;52.462;16.898;2023-04-25T12:52:36;6.30;;;2.08;;
32872;SDS011;19224;52.462;16.898;2023-04-25T12:55:07;4.33;;;2.05;;
32872;SDS011;19224;52.462;16.898;2023-04-25T12:57:37;7.92;;;1.98;;
32872;SDS011;19224;52.462;16.898;2023-04-25T13:00:08;3.15;;;1.70;;
32872;SDS011;19224;52.462;16.898;2023-04-25T13:02:41;11.00;;;2.33;;
32872;SDS011;19224;52.462;16.898;2023-04-25T13:05:17;10.88;;;1.90;;
32872;SDS011;19224;52.462;16.898;2023-04-25T13:07:45;7.70;;;2.02;;
32872;SDS011;19224;52.462;16.898;2023-04-25T13:10:15;4.80;;;1.90;;
32872;SDS011;19224;52.462;16.898;2023-04-25T13:12:46;16.97;;;1.67;;
32872;SDS011;19224;52.462;16.898;2023-04-25T13:15:16;5.90;;;1.45;;
32872;SDS011;19224;52.462;16.898;2023-04-25T13:17:47;7.62;;;1.65;;
32872;SDS011;19224;52.462;16.898;2023-04-25T13:20:17;1.82;;;1.10;;
32872;SDS011;19224;52.462;16.898;2023-04-25T13:22:50;1.87;;;0.72;;
32872;SDS011;19224;52.462;16.898;2023-04-25T13:25:20;2.92;;;0.57;;
32872;SDS011;19224;52.462;16.898;2023-04-25T13:27:50;7.65;;;1.00;;
32872;SDS011;19224;52.462;16.898;2023-04-25T13:30:21;6.37;;;1.17;;
32872;SDS011;19224;52.462;16.898;2023-04-25T13:32:51;2.12;;;1.15;;
32872;SDS011;19224;52.462;16.898;2023-04-25T13:35:24;7.17;;;1.52;;
32872;SDS011;19224;52.462;16.898;2023-04-25T13:37:54;9.28;;;1.30;;
32872;SDS011;19224;52.462;16.898;2023-04-25T13:40:25;3.47;;;1.42;;
32872;SDS011;19224;52.462;16.898;2023-04-25T13:42:56;3.22;;;1.40;;
32872;SDS011;19224;52.462;16.898;2023-04-25T13:45:30;2.58;;;1.40;;
32872;SDS011;19224;52.462;16.898;2023-04-25T13:48:01;4.33;;;1.77;;
32872;SDS011;19224;52.462;16.898;2023-04-25T13:50:31;4.95;;;1.67;;
32872;SDS011;19224;52.462;16.898;2023-04-25T13:53:04;5.58;;;2.15;;
32872;SDS011;19224;52.462;16.898;2023-04-25T13:55:35;2.50;;;1.60;;
32872;SDS011;19224;52.462;16.898;2023-04-25T13:58:08;4.67;;;2.10;;
32872;SDS011;19224;52.462;16.898;2023-04-25T14:00:40;6.75;;;2.30;;
32872;SDS011;19224;52.462;16.898;2023-04-25T14:03:12;10.40;;;2.70;;
32872;SDS011;19224;52.462;16.898;2023-04-25T14:05:42;3.15;;;2.20;;
32872;SDS011;19224;52.462;16.898;2023-04-25T14:08:12;4.70;;;2.90;;
32872;SDS011;19224;52.462;16.898;2023-04-25T14:10:43;4.78;;;2.08;;
32872;SDS011;19224;52.462;16.898;2023-04-25T14:13:14;4.12;;;2.80;;
32872;SDS011;19224;52.462;16.898;2023-04-25T14:15:44;10.78;;;3.05;;
32872;SDS011;19224;52.462;16.898;2023-04-25T14:18:15;4.97;;;2.75;;
32872;SDS011;19224;52.462;16.898;2023-04-25T14:20:46;7.37;;;2.50;;
32872;SDS011;19224;52.462;16.898;2023-04-25T14:23:17;3.83;;;1.95;;
32872;SDS011;19224;52.462;16.898;2023-04-25T14:25:47;4.35;;;2.15;;
32872;SDS011;19224;52.462;16.898;2023-04-25T14:28:18;3.45;;;2.30;;
32872;SDS011;19224;52.462;16.898;2023-04-25T14:30:49;2.37;;;1.70;;
32872;SDS011;19224;52.462;16.898;2023-04-25T14:33:19;2.47;;;1.60;;
32872;SDS011;19224;52.462;16.898;2023-04-25T14:35:49;5.28;;;2.70;;
32872;SDS011;19224;52.462;16.898;2023-04-25T14:38:22;4.87;;;1.90;;
32872;SDS011;19224;52.462;16.898;2023-04-25T14:40:53;2.83;;;1.70;;
32872;SDS011;19224;52.462;16.898;2023-04-25T14:43:23;3.62;;;2.00;;
32872;SDS011;19224;52.462;16.898;2023-04-25T14:45:54;7.83;;;2.40;;
32872;SDS011;19224;52.462;16.898;2023-04-25T14:51:24;3.98;;;1.85;;
32872;SDS011;19224;52.462;16.898;2023-04-25T14:53:55;6.60;;;1.60;;
32872;SDS011;19224;52.462;16.898;2023-04-25T14:56:25;1.92;;;1.60;;
32872;SDS011;19224;52.462;16.898;2023-04-25T14:58:57;4.37;;;1.80;;
32872;SDS011;19224;52.462;16.898;2023-04-25T15:01:30;5.40;;;1.57;;